Kimball, MN (55353)

1:16 PM CDT on May 03, 2015 (GMT -0500)
North of Kimball | | Change Station
CLOSE
Current Station
Personal Weather Station
Location: Kimball, MN
Elevation: 1260 ft
Nearby Weather Stations

Elev 1260 ft 45.35 °N, 94.34 °W | Updated 3 seconds ago

Partly Cloudy
Partly Cloudy
72.6 °F
Feels Like 76 °F
N
3.0
Wind Variable Wind from ENE
Gusts 9.0 mph

Today
High -- | Low -- °F
--% Chance of Precip.
Yesterday
High -- | Low -- °F
Precip. -- in
6:03 AM 8:25 PM
Full, 100% visible
Pressure 29.82 in
Visibility 10.0 miles
Clouds Scattered Clouds 11000 ft
Heat Index 76 °F
Dew Point 60 °F
Humidity 64%
Rainfall 0.05 in
Snow Depth Not available.
UV 8 out of 12
Pollen 10.30 out of 12
Air Quality Not available.
Flu Activity Sporadic
METAR KMGG 031757Z AUTO 33005KT 10SM SCT110 22/14 A2982 RMK AO2 60002 T02200144 10220 20135

More Conditions Fewer Conditions

Pressure 29.82 in
Visibility 10.0 miles
Clouds Scattered Clouds 11000 ft
Heat Index 76 °F
Dew Point 60 °F
Humidity 64%
Rainfall 0.05 in
Snow Depth Not available.
UV 8 out of 12
Pollen 10.30 out of 12
Air Quality Not available.
Flu Activity Sporadic
METAR KMGG 031757Z AUTO 33005KT 10SM SCT110 22/14 A2982 RMK AO2 60002 T02200144 10220 20135

More Conditions Fewer Conditions

Nepal has a long way to go to dig out and rebuild from a devastating earthquake. We have teamed up with several charities and organizations to make contributing to the relief effort as easy as possible.
How you can help: Portlight Strategies | Red Cross

10-Day Weather Forecast

Almanac

Astronomy

May. 03, 2015 Rise Set
Actual Time
Civil Twilight
Nautical Twilight
Astronomical Twilight
Moon
Length of Visible Light
Length of Day
Tomorrow will be .
, % of the Moon is Illuminated

Today's Extremes

State Highs State Lows

Community

WunderPhotos

Upload Photos

1,818,301 photos uploaded!

WunderBlogs® & News

Nearby

Air Quality

  Air Quality AQ Index Pollutant
Not available.

Snow Depth

Station Depth Elevation

Earthquake Activity

City Distance Mag. Time & Date
Minimum magnitude displayed is 2.5.

Coastal Water Temperatures

Place Temperature

Stations

Nearby Weather Stations

Station Location Temp. Windchill Dew Point Humidity Wind Precip. Elev Updated Type